createdAt,value
2022-08-26T00:01:37.422Z,26.70
2022-08-26T00:06:42.752Z,26.70
2022-08-26T00:11:49.370Z,26.40
2022-08-26T00:16:52.880Z,26.40
2022-08-26T00:21:56.975Z,26.50
2022-08-26T00:26:58.723Z,27.10
2022-08-26T00:32:00.973Z,26.50
2022-08-26T00:37:02.985Z,26.50
2022-08-26T00:42:05.439Z,26.40
2022-08-26T00:47:20.241Z,26.20
2022-08-26T00:52:24.067Z,26.30
2022-08-26T00:57:26.865Z,26.60
2022-08-26T01:02:29.386Z,26.30
2022-08-26T01:07:32.734Z,26.20
2022-08-26T01:12:42.401Z,26.10
2022-08-26T01:17:44.591Z,26.00
2022-08-26T01:22:52.200Z,26.40
2022-08-26T01:27:57.133Z,26.20
2022-08-26T01:33:03.104Z,26.10
2022-08-26T01:38:05.095Z,26.00
2022-08-26T01:43:09.496Z,25.80
2022-08-26T01:48:15.727Z,25.90
2022-08-26T01:53:19.470Z,25.80
2022-08-26T01:58:48.173Z,25.50
2022-08-26T02:04:17.676Z,25.70
2022-08-26T02:09:20.572Z,25.10
2022-08-26T02:14:28.994Z,25.80
2022-08-26T02:19:34.103Z,25.40
2022-08-26T02:24:48.987Z,25.30
2022-08-26T02:29:58.605Z,25.50
2022-08-26T02:35:00.699Z,25.50
2022-08-26T02:40:03.451Z,25.60
2022-08-26T02:45:06.330Z,25.40
2022-08-26T02:50:08.978Z,25.50
2022-08-26T02:55:10.814Z,25.90
2022-08-26T03:00:13.920Z,25.20
2022-08-26T03:05:16.545Z,25.10
2022-08-26T03:10:18.875Z,25.30
2022-08-26T03:15:20.713Z,25.30
2022-08-26T03:20:22.506Z,25.10
2022-08-26T03:25:24.769Z,25.00
2022-08-26T03:30:26.603Z,24.90
2022-08-26T03:35:28.580Z,25.00
2022-08-26T03:40:31.075Z,24.60
2022-08-26T03:45:32.964Z,24.40
2022-08-26T03:50:35.661Z,24.70
2022-08-26T03:55:37.631Z,25.30
2022-08-26T04:00:41.172Z,24.60
2022-08-26T04:05:42.908Z,24.70
2022-08-26T04:10:44.687Z,24.90
2022-08-26T04:15:46.469Z,24.80
2022-08-26T04:20:48.242Z,24.60
2022-08-26T04:25:49.996Z,24.50
2022-08-26T04:30:51.737Z,24.30
2022-08-26T04:36:04.242Z,24.50
2022-08-26T04:41:14.938Z,24.80
2022-08-26T04:46:20.313Z,24.70
2022-08-26T04:51:22.543Z,24.40
2022-08-26T04:56:32.212Z,24.70
2022-08-26T05:01:34.858Z,25.00
2022-08-26T05:06:41.485Z,25.30
2022-08-26T05:11:43.260Z,25.20
2022-08-26T05:16:45.068Z,24.90
2022-08-26T05:21:49.782Z,24.90
2022-08-26T05:26:51.665Z,25.10
2022-08-26T05:31:53.561Z,25.10
2022-08-26T05:36:58.021Z,25.20
2022-08-26T05:41:59.708Z,25.10
2022-08-26T05:47:01.644Z,25.20
2022-08-26T05:52:03.740Z,25.40
2022-08-26T05:57:05.705Z,25.60
2022-08-26T06:02:07.567Z,25.80
2022-08-26T06:07:12.294Z,25.60
2022-08-26T06:12:15.371Z,25.40
2022-08-26T06:17:17.119Z,24.80
2022-08-26T06:22:22.310Z,25.10
2022-08-26T06:27:29.400Z,25.00
2022-08-26T06:32:34.250Z,25.40
2022-08-26T06:37:35.986Z,25.60
2022-08-26T06:42:38.196Z,26.00
2022-08-26T06:47:40.969Z,26.20
2022-08-26T06:52:42.687Z,26.10
2022-08-26T06:57:44.405Z,26.30
2022-08-26T07:02:47.705Z,26.50
2022-08-26T07:07:49.497Z,27.40
2022-08-26T07:12:51.745Z,27.00
2022-08-26T07:17:54.939Z,26.70
2022-08-26T07:22:57.221Z,27.50
2022-08-26T07:27:59.428Z,28.10
2022-08-26T07:33:01.155Z,28.30
2022-08-26T07:38:02.914Z,28.10
2022-08-26T07:43:05.208Z,28.50
2022-08-26T07:48:07.016Z,28.60
2022-08-26T07:53:10.831Z,29.00
2022-08-26T07:58:12.686Z,29.10
2022-08-26T08:03:14.565Z,29.20
2022-08-26T08:08:27.916Z,29.30
2022-08-26T08:13:31.188Z,29.60
2022-08-26T08:18:33.651Z,29.70
2022-08-26T08:23:35.418Z,29.80
2022-08-26T08:28:40.209Z,29.90
2022-08-26T08:33:43.257Z,30.00
2022-08-26T08:38:45.051Z,29.60
2022-08-26T08:43:47.204Z,29.80
2022-08-26T08:48:54.223Z,30.50
2022-08-26T08:53:56.710Z,30.80
2022-08-26T08:59:17.574Z,30.80
2022-08-26T09:04:38.150Z,30.80
2022-08-26T09:09:44.952Z,30.30
2022-08-26T09:14:49.092Z,30.80
2022-08-26T09:20:01.785Z,31.80
2022-08-26T09:25:07.559Z,31.60
2022-08-26T09:30:28.211Z,32.10
2022-08-26T09:35:42.616Z,32.10
2022-08-26T09:40:59.139Z,32.20
2022-08-26T09:46:15.661Z,31.90
2022-08-26T09:51:20.179Z,32.00
2022-08-26T09:56:33.662Z,32.30
2022-08-26T10:01:42.839Z,32.10
2022-08-26T10:06:57.977Z,32.00
2022-08-26T10:12:06.344Z,32.20
2022-08-26T10:17:16.168Z,31.30
2022-08-26T10:22:34.893Z,31.70
2022-08-26T10:27:53.701Z,31.60
2022-08-26T10:33:01.995Z,32.30
2022-08-26T10:38:14.909Z,31.90
2022-08-26T10:43:25.684Z,32.20
2022-08-26T10:48:35.558Z,32.50
2022-08-26T10:53:58.270Z,32.70
2022-08-26T10:59:22.681Z,33.40
2022-08-26T11:04:35.325Z,33.80
2022-08-26T11:09:46.765Z,33.20
2022-08-26T11:14:58.432Z,33.30
2022-08-26T11:20:04.632Z,32.80
2022-08-26T11:25:13.403Z,33.50
2022-08-26T11:30:15.048Z,33.50
2022-08-26T11:35:19.929Z,33.70
2022-08-26T11:40:26.754Z,34.00
2022-08-26T11:45:33.356Z,33.80
2022-08-26T11:50:35.120Z,34.20
2022-08-26T11:55:43.096Z,34.40
2022-08-26T12:00:50.908Z,34.20
2022-08-26T12:05:53.773Z,33.90
2022-08-26T12:11:11.331Z,33.60
2022-08-26T12:16:13.203Z,33.70
2022-08-26T12:21:27.987Z,34.30
2022-08-26T12:26:36.499Z,34.40
2022-08-26T12:31:41.177Z,34.70
2022-08-26T12:36:54.718Z,34.50
2022-08-26T12:42:06.385Z,34.60
2022-08-26T12:47:42.143Z,34.00
2022-08-26T12:53:01.913Z,33.80
2022-08-26T12:58:32.714Z,34.90
2022-08-26T13:03:34.394Z,34.70
2022-08-26T13:08:39.120Z,35.00
2022-08-26T13:13:40.931Z,34.50
2022-08-26T13:18:42.651Z,33.90
2022-08-26T13:23:44.477Z,33.70
2022-08-26T13:28:47.713Z,33.50
2022-08-26T13:34:04.357Z,34.60
2022-08-26T13:39:06.781Z,34.10
2022-08-26T13:44:08.662Z,34.80
2022-08-26T13:49:11.261Z,34.90
2022-08-26T13:54:12.938Z,33.90
2022-08-26T13:59:14.658Z,33.50
2022-08-26T14:04:16.396Z,34.10
2022-08-26T14:09:25.037Z,33.80
2022-08-26T14:14:26.788Z,33.60
2022-08-26T14:19:30.009Z,34.00
2022-08-26T14:24:31.739Z,34.00
2022-08-26T14:29:33.488Z,33.20
2022-08-26T14:34:35.355Z,32.90
2022-08-26T14:39:37.099Z,32.90
2022-08-26T14:44:40.970Z,32.80
2022-08-26T14:49:42.665Z,32.80
2022-08-26T14:54:44.642Z,32.70
2022-08-26T14:59:49.894Z,32.60
2022-08-26T15:04:52.076Z,32.50
2022-08-26T15:09:53.892Z,33.50
2022-08-26T15:14:55.609Z,34.10
2022-08-26T15:19:57.938Z,33.80
2022-08-26T15:24:59.796Z,33.10
2022-08-26T15:30:04.604Z,33.20
2022-08-26T15:35:09.048Z,32.80
2022-08-26T15:40:11.474Z,32.70
2022-08-26T15:45:13.260Z,32.40
2022-08-26T15:50:28.790Z,32.00
2022-08-26T15:55:30.480Z,32.00
2022-08-26T16:00:32.572Z,32.10
2022-08-26T16:05:39.584Z,32.00
2022-08-26T16:10:49.765Z,31.80
2022-08-26T16:15:52.221Z,32.00
2022-08-26T16:21:08.799Z,32.20
2022-08-26T16:26:22.223Z,31.50
2022-08-26T16:31:24.174Z,31.30
2022-08-26T16:36:25.959Z,31.10
2022-08-26T16:41:30.077Z,31.00
2022-08-26T16:46:32.797Z,31.10
2022-08-26T16:51:37.998Z,31.00
2022-08-26T16:56:40.283Z,30.90
2022-08-26T17:01:42.069Z,30.90
2022-08-26T17:06:43.961Z,30.80
2022-08-26T17:11:45.874Z,30.70
2022-08-26T17:16:47.934Z,30.70
2022-08-26T17:21:49.714Z,30.40
2022-08-26T17:26:55.467Z,30.50
2022-08-26T17:31:57.581Z,30.50
2022-08-26T17:36:59.303Z,30.60
2022-08-26T17:42:01.029Z,30.40
2022-08-26T17:47:02.791Z,30.30
2022-08-26T17:52:07.493Z,30.30
2022-08-26T17:57:12.762Z,30.20
2022-08-26T18:02:14.587Z,30.00
2022-08-26T18:07:16.972Z,29.80
2022-08-26T18:12:18.761Z,29.80
2022-08-26T18:17:20.516Z,29.50
2022-08-26T18:22:22.262Z,29.30
2022-08-26T18:27:24.073Z,29.30
2022-08-26T18:32:25.801Z,29.20
2022-08-26T18:37:31.012Z,29.20
2022-08-26T18:42:33.802Z,29.20
2022-08-26T18:47:36.263Z,29.20
2022-08-26T18:52:38.171Z,29.10
2022-08-26T18:57:39.983Z,29.00
2022-08-26T19:02:41.897Z,28.90
2022-08-26T19:07:48.698Z,28.80
2022-08-26T19:12:52.022Z,28.70
2022-08-26T19:17:53.968Z,28.70
2022-08-26T19:22:57.533Z,28.60
2022-08-26T19:28:04.276Z,28.50
2022-08-26T19:33:09.233Z,28.40
2022-08-26T19:38:11.307Z,28.20
2022-08-26T19:43:13.071Z,28.10
2022-08-26T19:48:16.460Z,28.10
2022-08-26T19:53:18.230Z,28.30
2022-08-26T19:58:19.939Z,28.40
2022-08-26T20:03:21.798Z,28.00
2022-08-26T20:08:23.729Z,27.90
2022-08-26T20:13:25.583Z,27.90
2022-08-26T20:18:27.311Z,27.80
2022-08-26T20:23:29.041Z,27.60
2022-08-26T20:28:31.975Z,27.60
2022-08-26T20:33:46.135Z,27.60
2022-08-26T20:38:49.095Z,27.50
2022-08-26T20:43:51.252Z,27.60
2022-08-26T20:48:54.423Z,27.30
2022-08-26T20:53:56.648Z,27.40
2022-08-26T20:59:00.910Z,27.30
2022-08-26T21:04:06.498Z,27.30
2022-08-26T21:09:10.606Z,27.20
2022-08-26T21:14:16.230Z,27.20
2022-08-26T21:19:19.680Z,26.90
2022-08-26T21:24:21.711Z,26.50
2022-08-26T21:29:24.009Z,27.00
2022-08-26T21:34:25.716Z,26.20
2022-08-26T21:39:27.446Z,26.80
2022-08-26T21:44:29.193Z,27.40
2022-08-26T21:49:30.962Z,26.90
2022-08-26T21:54:33.169Z,26.30
2022-08-26T21:59:35.663Z,26.00
2022-08-26T22:04:37.387Z,25.90
2022-08-26T22:09:39.132Z,26.20
2022-08-26T22:14:45.341Z,26.50
2022-08-26T22:19:47.060Z,26.40
2022-08-26T22:24:48.759Z,26.30
2022-08-26T22:29:50.455Z,26.40
2022-08-26T22:34:52.187Z,26.10
2022-08-26T22:39:54.011Z,26.30
2022-08-26T22:44:55.762Z,26.40
2022-08-26T22:49:59.174Z,26.40
2022-08-26T22:55:00.964Z,26.20
2022-08-26T23:00:03.037Z,25.90
2022-08-26T23:05:05.222Z,26.00
2022-08-26T23:10:08.821Z,26.20
2022-08-26T23:15:11.973Z,25.90
2022-08-26T23:20:14.852Z,25.90
2022-08-26T23:25:16.876Z,25.90
2022-08-26T23:30:23.398Z,25.80
2022-08-26T23:35:25.833Z,25.90
2022-08-26T23:40:31.189Z,25.80
2022-08-26T23:45:33.897Z,25.40
2022-08-26T23:50:35.655Z,25.40
2022-08-26T23:55:38.912Z,25.70
